sensor_id;sensor_type;location;lat;lon;timestamp;temperature;humidity
56374;DHT22;58212;47.034;7.376;2023-02-03T00:00:51;4.30;99.90
56374;DHT22;58212;47.034;7.376;2023-02-03T00:03:20;4.30;99.90
56374;DHT22;58212;47.034;7.376;2023-02-03T00:06:12;4.30;99.90
56374;DHT22;58212;47.034;7.376;2023-02-03T00:08:42;4.30;99.90
56374;DHT22;58212;47.034;7.376;2023-02-03T00:11:09;4.40;99.90
56374;DHT22;58212;47.034;7.376;2023-02-03T00:13:37;4.40;99.90
56374;DHT22;58212;47.034;7.376;2023-02-03T00:16:04;4.40;99.90
56374;DHT22;58212;47.034;7.376;2023-02-03T00:18:34;4.30;99.90
56374;DHT22;58212;47.034;7.376;2023-02-03T00:21:01;4.30;99.90
56374;DHT22;58212;47.034;7.376;2023-02-03T00:23:32;4.40;99.90
56374;DHT22;58212;47.034;7.376;2023-02-03T00:26:06;4.40;99.90
56374;DHT22;58212;47.034;7.376;2023-02-03T00:28:34;4.60;99.90
56374;DHT22;58212;47.034;7.376;2023-02-03T00:31:01;4.50;99.90
56374;DHT22;58212;47.034;7.376;2023-02-03T00:33:29;4.50;99.90
56374;DHT22;58212;47.034;7.376;2023-02-03T00:35:56;4.50;99.90
56374;DHT22;58212;47.034;7.376;2023-02-03T00:38:26;4.50;99.90
56374;DHT22;58212;47.034;7.376;2023-02-03T00:40:54;4.50;99.90
56374;DHT22;58212;47.034;7.376;2023-02-03T00:43:22;4.50;99.90
56374;DHT22;58212;47.034;7.376;2023-02-03T00:45:52;4.60;99.90
56374;DHT22;58212;47.034;7.376;2023-02-03T00:48:18;4.60;99.90
56374;DHT22;58212;47.034;7.376;2023-02-03T00:50:46;4.60;99.90
56374;DHT22;58212;47.034;7.376;2023-02-03T00:53:14;4.60;99.90
56374;DHT22;58212;47.034;7.376;2023-02-03T00:55:42;4.60;99.90
56374;DHT22;58212;47.034;7.376;2023-02-03T00:58:10;4.60;99.90
56374;DHT22;58212;47.034;7.376;2023-02-03T01:00:37;4.60;99.90
56374;DHT22;58212;47.034;7.376;2023-02-03T01:03:05;4.60;99.90
56374;DHT22;58212;47.034;7.376;2023-02-03T01:05:32;4.60;99.90
56374;DHT22;58212;47.034;7.376;2023-02-03T01:07:59;4.60;99.90
56374;DHT22;58212;47.034;7.376;2023-02-03T01:10:27;4.60;99.90
56374;DHT22;58212;47.034;7.376;2023-02-03T01:12:56;4.50;99.90
56374;DHT22;58212;47.034;7.376;2023-02-03T01:15:28;4.20;99.90
56374;DHT22;58212;47.034;7.376;2023-02-03T01:17:56;4.40;99.90
56374;DHT22;58212;47.034;7.376;2023-02-03T01:20:23;4.40;99.90
56374;DHT22;58212;47.034;7.376;2023-02-03T01:22:50;4.30;99.90
56374;DHT22;58212;47.034;7.376;2023-02-03T01:25:21;4.20;99.90
56374;DHT22;58212;47.034;7.376;2023-02-03T01:27:48;4.20;99.90
56374;DHT22;58212;47.034;7.376;2023-02-03T01:30:17;4.30;99.90
56374;DHT22;58212;47.034;7.376;2023-02-03T01:32:47;4.40;99.90
56374;DHT22;58212;47.034;7.376;2023-02-03T01:35:15;4.40;99.90
56374;DHT22;58212;47.034;7.376;2023-02-03T01:37:42;4.30;99.90
56374;DHT22;58212;47.034;7.376;2023-02-03T01:40:10;4.30;99.90
56374;DHT22;58212;47.034;7.376;2023-02-03T01:42:38;4.30;99.90
56374;DHT22;58212;47.034;7.376;2023-02-03T01:45:06;4.40;99.90
56374;DHT22;58212;47.034;7.376;2023-02-03T01:47:59;4.40;99.90
56374;DHT22;58212;47.034;7.376;2023-02-03T01:50:31;4.50;99.90
56374;DHT22;58212;47.034;7.376;2023-02-03T01:53:02;4.50;99.90
56374;DHT22;58212;47.034;7.376;2023-02-03T01:55:36;4.60;99.90
56374;DHT22;58212;47.034;7.376;2023-02-03T01:58:07;4.70;99.90
56374;DHT22;58212;47.034;7.376;2023-02-03T02:00:36;4.70;99.90
56374;DHT22;58212;47.034;7.376;2023-02-03T02:03:07;4.60;99.90
56374;DHT22;58212;47.034;7.376;2023-02-03T02:05:39;4.60;99.90
56374;DHT22;58212;47.034;7.376;2023-02-03T02:08:11;4.60;99.90
56374;DHT22;58212;47.034;7.376;2023-02-03T02:10:39;4.50;99.90
56374;DHT22;58212;47.034;7.376;2023-02-03T02:13:07;4.70;99.90
56374;DHT22;58212;47.034;7.376;2023-02-03T02:15:42;4.70;99.90
56374;DHT22;58212;47.034;7.376;2023-02-03T02:18:22;4.70;99.90
56374;DHT22;58212;47.034;7.376;2023-02-03T02:24:31;4.70;99.90
56374;DHT22;58212;47.034;7.376;2023-02-03T02:27:09;4.60;99.90
56374;DHT22;58212;47.034;7.376;2023-02-03T02:30:17;4.50;99.90
56374;DHT22;58212;47.034;7.376;2023-02-03T02:33:15;4.50;99.90
56374;DHT22;58212;47.034;7.376;2023-02-03T02:35:53;4.60;99.90
56374;DHT22;58212;47.034;7.376;2023-02-03T02:38:34;4.70;99.90
56374;DHT22;58212;47.034;7.376;2023-02-03T02:41:09;4.60;99.90
56374;DHT22;58212;47.034;7.376;2023-02-03T02:44:06;4.60;99.90
56374;DHT22;58212;47.034;7.376;2023-02-03T02:46:39;4.50;99.90
56374;DHT22;58212;47.034;7.376;2023-02-03T02:49:36;4.60;99.90
56374;DHT22;58212;47.034;7.376;2023-02-03T02:52:07;4.50;99.90
56374;DHT22;58212;47.034;7.376;2023-02-03T02:54:38;4.50;99.90
56374;DHT22;58212;47.034;7.376;2023-02-03T02:57:10;4.60;99.90
56374;DHT22;58212;47.034;7.376;2023-02-03T02:59:42;4.60;99.90
56374;DHT22;58212;47.034;7.376;2023-02-03T03:02:10;4.60;99.90
56374;DHT22;58212;47.034;7.376;2023-02-03T03:04:43;4.60;99.90
56374;DHT22;58212;47.034;7.376;2023-02-03T03:07:15;4.60;99.90
56374;DHT22;58212;47.034;7.376;2023-02-03T03:09:45;4.70;99.90
56374;DHT22;58212;47.034;7.376;2023-02-03T03:12:16;4.70;99.90
56374;DHT22;58212;47.034;7.376;2023-02-03T03:14:48;4.70;99.90
56374;DHT22;58212;47.034;7.376;2023-02-03T03:17:22;4.60;99.90
56374;DHT22;58212;47.034;7.376;2023-02-03T03:19:55;4.60;99.90
56374;DHT22;58212;47.034;7.376;2023-02-03T03:25:50;4.50;99.90
56374;DHT22;58212;47.034;7.376;2023-02-03T03:28:23;4.50;99.90
56374;DHT22;58212;47.034;7.376;2023-02-03T03:30:52;4.50;99.90
56374;DHT22;58212;47.034;7.376;2023-02-03T03:33:20;4.50;99.90
56374;DHT22;58212;47.034;7.376;2023-02-03T03:35:53;4.50;99.90
56374;DHT22;58212;47.034;7.376;2023-02-03T03:38:27;4.50;99.90
56374;DHT22;58212;47.034;7.376;2023-02-03T03:41:02;4.50;99.90
56374;DHT22;58212;47.034;7.376;2023-02-03T03:43:58;4.50;99.90
56374;DHT22;58212;47.034;7.376;2023-02-03T03:46:30;4.40;99.90
56374;DHT22;58212;47.034;7.376;2023-02-03T03:49:25;4.50;99.90
56374;DHT22;58212;47.034;7.376;2023-02-03T03:51:57;4.50;99.90
56374;DHT22;58212;47.034;7.376;2023-02-03T03:54:25;4.50;99.90
56374;DHT22;58212;47.034;7.376;2023-02-03T03:56:58;4.50;99.90
56374;DHT22;58212;47.034;7.376;2023-02-03T03:59:52;4.40;99.90
56374;DHT22;58212;47.034;7.376;2023-02-03T04:02:21;4.60;99.90
56374;DHT22;58212;47.034;7.376;2023-02-03T04:04:51;4.50;99.90
56374;DHT22;58212;47.034;7.376;2023-02-03T04:07:46;4.50;99.90
56374;DHT22;58212;47.034;7.376;2023-02-03T04:10:22;4.60;99.90
56374;DHT22;58212;47.034;7.376;2023-02-03T04:13:15;4.50;99.90
56374;DHT22;58212;47.034;7.376;2023-02-03T04:15:44;4.50;99.90
56374;DHT22;58212;47.034;7.376;2023-02-03T04:18:14;4.50;99.90
56374;DHT22;58212;47.034;7.376;2023-02-03T04:20:41;4.60;99.90
56374;DHT22;58212;47.034;7.376;2023-02-03T04:23:11;4.50;99.90
56374;DHT22;58212;47.034;7.376;2023-02-03T04:25:38;4.60;99.90
56374;DHT22;58212;47.034;7.376;2023-02-03T04:28:05;4.60;99.90
56374;DHT22;58212;47.034;7.376;2023-02-03T04:30:33;4.50;99.90
56374;DHT22;58212;47.034;7.376;2023-02-03T04:33:00;4.60;99.90
56374;DHT22;58212;47.034;7.376;2023-02-03T04:35:27;4.70;99.90
56374;DHT22;58212;47.034;7.376;2023-02-03T04:37:54;4.60;99.90
56374;DHT22;58212;47.034;7.376;2023-02-03T04:40:22;4.50;99.90
56374;DHT22;58212;47.034;7.376;2023-02-03T04:42:52;4.60;99.90
56374;DHT22;58212;47.034;7.376;2023-02-03T04:45:19;4.60;99.90
56374;DHT22;58212;47.034;7.376;2023-02-03T04:47:50;4.70;99.90
56374;DHT22;58212;47.034;7.376;2023-02-03T04:50:22;4.60;99.90
56374;DHT22;58212;47.034;7.376;2023-02-03T04:52:51;4.60;99.90
56374;DHT22;58212;47.034;7.376;2023-02-03T04:55:18;4.60;99.90
56374;DHT22;58212;47.034;7.376;2023-02-03T04:57:54;4.30;99.90
56374;DHT22;58212;47.034;7.376;2023-02-03T05:00:22;4.30;99.90
56374;DHT22;58212;47.034;7.376;2023-02-03T05:02:49;4.30;99.90
56374;DHT22;58212;47.034;7.376;2023-02-03T05:05:18;4.00;99.90
56374;DHT22;58212;47.034;7.376;2023-02-03T05:07:44;4.10;99.90
56374;DHT22;58212;47.034;7.376;2023-02-03T05:10:37;4.20;99.90
56374;DHT22;58212;47.034;7.376;2023-02-03T05:13:07;4.20;99.90
56374;DHT22;58212;47.034;7.376;2023-02-03T05:15:34;4.10;99.90
56374;DHT22;58212;47.034;7.376;2023-02-03T05:18:01;4.20;99.90
56374;DHT22;58212;47.034;7.376;2023-02-03T05:20:28;4.00;99.90
56374;DHT22;58212;47.034;7.376;2023-02-03T05:22:55;3.90;99.90
56374;DHT22;58212;47.034;7.376;2023-02-03T05:25:21;3.90;99.90
56374;DHT22;58212;47.034;7.376;2023-02-03T05:27:49;3.80;99.90
56374;DHT22;58212;47.034;7.376;2023-02-03T05:30:17;3.70;99.90
56374;DHT22;58212;47.034;7.376;2023-02-03T05:32:44;3.60;99.90
56374;DHT22;58212;47.034;7.376;2023-02-03T05:35:11;3.50;99.90
56374;DHT22;58212;47.034;7.376;2023-02-03T05:37:38;3.70;99.90
56374;DHT22;58212;47.034;7.376;2023-02-03T05:40:06;3.70;99.90
56374;DHT22;58212;47.034;7.376;2023-02-03T05:42:53;3.70;99.90
56374;DHT22;58212;47.034;7.376;2023-02-03T05:45:21;3.70;99.90
56374;DHT22;58212;47.034;7.376;2023-02-03T05:47:48;3.50;99.90
56374;DHT22;58212;47.034;7.376;2023-02-03T05:50:15;3.50;99.90
56374;DHT22;58212;47.034;7.376;2023-02-03T05:52:44;3.60;99.90
56374;DHT22;58212;47.034;7.376;2023-02-03T05:55:11;3.60;99.90
56374;DHT22;58212;47.034;7.376;2023-02-03T05:57:38;3.50;99.90
56374;DHT22;58212;47.034;7.376;2023-02-03T06:00:06;3.60;99.90
56374;DHT22;58212;47.034;7.376;2023-02-03T06:02:39;3.40;99.90
56374;DHT22;58212;47.034;7.376;2023-02-03T06:05:06;3.30;99.90
56374;DHT22;58212;47.034;7.376;2023-02-03T06:07:33;3.20;99.90
56374;DHT22;58212;47.034;7.376;2023-02-03T06:10:01;3.10;99.90
56374;DHT22;58212;47.034;7.376;2023-02-03T06:12:28;3.20;99.90
56374;DHT22;58212;47.034;7.376;2023-02-03T06:14:55;3.00;99.90
56374;DHT22;58212;47.034;7.376;2023-02-03T06:17:48;3.00;99.90
56374;DHT22;58212;47.034;7.376;2023-02-03T06:20:17;3.00;99.90
56374;DHT22;58212;47.034;7.376;2023-02-03T06:22:45;3.00;99.90
56374;DHT22;58212;47.034;7.376;2023-02-03T06:25:12;3.00;99.90
56374;DHT22;58212;47.034;7.376;2023-02-03T06:27:39;3.00;99.90
56374;DHT22;58212;47.034;7.376;2023-02-03T06:30:08;3.00;99.90
56374;DHT22;58212;47.034;7.376;2023-02-03T06:32:35;3.10;99.90
56374;DHT22;58212;47.034;7.376;2023-02-03T06:35:04;2.90;99.90
56374;DHT22;58212;47.034;7.376;2023-02-03T06:37:31;2.80;99.90
56374;DHT22;58212;47.034;7.376;2023-02-03T06:40:25;2.70;99.90
56374;DHT22;58212;47.034;7.376;2023-02-03T06:42:56;2.70;99.90
56374;DHT22;58212;47.034;7.376;2023-02-03T06:45:23;2.80;99.90
56374;DHT22;58212;47.034;7.376;2023-02-03T06:47:51;2.80;99.90
56374;DHT22;58212;47.034;7.376;2023-02-03T06:50:19;2.80;99.90
56374;DHT22;58212;47.034;7.376;2023-02-03T06:52:48;2.70;99.90
56374;DHT22;58212;47.034;7.376;2023-02-03T06:55:41;2.70;99.90
56374;DHT22;58212;47.034;7.376;2023-02-03T06:58:11;2.60;99.90
56374;DHT22;58212;47.034;7.376;2023-02-03T07:00:39;2.70;99.90
56374;DHT22;58212;47.034;7.376;2023-02-03T07:03:06;2.80;99.90
56374;DHT22;58212;47.034;7.376;2023-02-03T07:05:59;2.80;99.90
56374;DHT22;58212;47.034;7.376;2023-02-03T07:08:26;2.90;99.90
56374;DHT22;58212;47.034;7.376;2023-02-03T07:10:55;2.70;99.90
56374;DHT22;58212;47.034;7.376;2023-02-03T07:13:22;2.70;99.90
56374;DHT22;58212;47.034;7.376;2023-02-03T07:15:50;2.80;99.90
56374;DHT22;58212;47.034;7.376;2023-02-03T07:18:17;2.80;99.90
56374;DHT22;58212;47.034;7.376;2023-02-03T07:20:49;2.80;99.90
56374;DHT22;58212;47.034;7.376;2023-02-03T07:23:18;2.90;99.90
56374;DHT22;58212;47.034;7.376;2023-02-03T07:25:45;2.80;99.90
56374;DHT22;58212;47.034;7.376;2023-02-03T07:28:12;2.80;99.90
56374;DHT22;58212;47.034;7.376;2023-02-03T07:30:39;2.80;99.90
56374;DHT22;58212;47.034;7.376;2023-02-03T07:33:06;2.80;99.90
56374;DHT22;58212;47.034;7.376;2023-02-03T07:35:33;2.90;99.90
56374;DHT22;58212;47.034;7.376;2023-02-03T07:38:01;3.00;99.90
56374;DHT22;58212;47.034;7.376;2023-02-03T07:40:29;3.10;99.90
56374;DHT22;58212;47.034;7.376;2023-02-03T07:42:56;3.00;99.90
56374;DHT22;58212;47.034;7.376;2023-02-03T07:45:24;3.00;99.90
56374;DHT22;58212;47.034;7.376;2023-02-03T07:47:52;3.00;99.90
56374;DHT22;58212;47.034;7.376;2023-02-03T07:50:18;3.00;99.90
56374;DHT22;58212;47.034;7.376;2023-02-03T07:52:45;2.90;99.90
56374;DHT22;58212;47.034;7.376;2023-02-03T07:55:12;3.00;99.90
56374;DHT22;58212;47.034;7.376;2023-02-03T07:57:41;3.00;99.90
56374;DHT22;58212;47.034;7.376;2023-02-03T08:00:10;3.00;99.90
56374;DHT22;58212;47.034;7.376;2023-02-03T08:02:39;3.10;99.90
56374;DHT22;58212;47.034;7.376;2023-02-03T08:05:06;3.20;99.90
56374;DHT22;58212;47.034;7.376;2023-02-03T08:07:34;3.20;99.90
56374;DHT22;58212;47.034;7.376;2023-02-03T08:10:01;3.20;99.90
56374;DHT22;58212;47.034;7.376;2023-02-03T08:12:28;3.30;99.90
56374;DHT22;58212;47.034;7.376;2023-02-03T08:15:22;3.20;99.90
56374;DHT22;58212;47.034;7.376;2023-02-03T08:17:51;3.20;99.90
56374;DHT22;58212;47.034;7.376;2023-02-03T08:20:20;3.30;99.90
56374;DHT22;58212;47.034;7.376;2023-02-03T08:22:47;3.30;99.90
56374;DHT22;58212;47.034;7.376;2023-02-03T08:25:15;3.30;99.90
56374;DHT22;58212;47.034;7.376;2023-02-03T08:27:42;3.50;99.90
56374;DHT22;58212;47.034;7.376;2023-02-03T08:30:12;3.60;99.90
56374;DHT22;58212;47.034;7.376;2023-02-03T08:32:41;3.70;99.90
56374;DHT22;58212;47.034;7.376;2023-02-03T08:35:08;3.80;99.90
56374;DHT22;58212;47.034;7.376;2023-02-03T08:37:37;3.70;99.90
56374;DHT22;58212;47.034;7.376;2023-02-03T08:40:05;3.70;99.90
56374;DHT22;58212;47.034;7.376;2023-02-03T08:42:34;3.80;99.90
56374;DHT22;58212;47.034;7.376;2023-02-03T08:45:00;3.90;99.90
56374;DHT22;58212;47.034;7.376;2023-02-03T08:47:29;4.00;99.90
56374;DHT22;58212;47.034;7.376;2023-02-03T08:49:57;4.10;99.90
56374;DHT22;58212;47.034;7.376;2023-02-03T08:52:24;4.20;99.90
56374;DHT22;58212;47.034;7.376;2023-02-03T08:54:51;4.10;99.90
56374;DHT22;58212;47.034;7.376;2023-02-03T08:57:18;4.10;99.90
56374;DHT22;58212;47.034;7.376;2023-02-03T08:59:46;4.20;99.90
56374;DHT22;58212;47.034;7.376;2023-02-03T09:02:16;4.40;99.90
56374;DHT22;58212;47.034;7.376;2023-02-03T09:04:43;4.60;99.90
56374;DHT22;58212;47.034;7.376;2023-02-03T09:07:12;4.60;99.90
56374;DHT22;58212;47.034;7.376;2023-02-03T09:09:40;4.90;99.90
56374;DHT22;58212;47.034;7.376;2023-02-03T09:12:07;5.10;99.90
56374;DHT22;58212;47.034;7.376;2023-02-03T09:14:36;5.20;99.90
56374;DHT22;58212;47.034;7.376;2023-02-03T09:17:04;5.40;99.90
56374;DHT22;58212;47.034;7.376;2023-02-03T09:19:33;5.60;99.90
56374;DHT22;58212;47.034;7.376;2023-02-03T09:22:00;5.80;99.90
56374;DHT22;58212;47.034;7.376;2023-02-03T09:24:28;6.00;99.90
56374;DHT22;58212;47.034;7.376;2023-02-03T09:26:55;6.20;99.90
56374;DHT22;58212;47.034;7.376;2023-02-03T09:29:22;6.50;99.90
56374;DHT22;58212;47.034;7.376;2023-02-03T09:31:50;6.50;99.90
56374;DHT22;58212;47.034;7.376;2023-02-03T09:34:18;6.70;99.90
56374;DHT22;58212;47.034;7.376;2023-02-03T09:36:46;6.80;99.90
56374;DHT22;58212;47.034;7.376;2023-02-03T09:39:12;7.00;99.90
56374;DHT22;58212;47.034;7.376;2023-02-03T09:44:48;7.20;99.90
56374;DHT22;58212;47.034;7.376;2023-02-03T09:47:22;7.40;99.90
56374;DHT22;58212;47.034;7.376;2023-02-03T09:49:52;7.60;99.90
56374;DHT22;58212;47.034;7.376;2023-02-03T09:52:23;7.50;99.90
56374;DHT22;58212;47.034;7.376;2023-02-03T09:54:56;7.70;99.90
56374;DHT22;58212;47.034;7.376;2023-02-03T09:57:25;7.60;99.90
56374;DHT22;58212;47.034;7.376;2023-02-03T09:59:57;7.50;99.90
56374;DHT22;58212;47.034;7.376;2023-02-03T10:02:43;7.40;99.90
56374;DHT22;58212;47.034;7.376;2023-02-03T10:05:19;7.60;99.90
56374;DHT22;58212;47.034;7.376;2023-02-03T10:07:55;7.80;99.90
56374;DHT22;58212;47.034;7.376;2023-02-03T10:10:34;8.10;99.90
56374;DHT22;58212;47.034;7.376;2023-02-03T10:13:13;8.00;99.90
56374;DHT22;58212;47.034;7.376;2023-02-03T10:16:03;7.90;99.90
56374;DHT22;58212;47.034;7.376;2023-02-03T10:18:38;8.00;99.90
56374;DHT22;58212;47.034;7.376;2023-02-03T10:21:12;8.00;99.90
56374;DHT22;58212;47.034;7.376;2023-02-03T10:23:42;7.70;99.90
56374;DHT22;58212;47.034;7.376;2023-02-03T10:26:15;7.60;99.90
56374;DHT22;58212;47.034;7.376;2023-02-03T10:28:50;7.50;99.90
56374;DHT22;58212;47.034;7.376;2023-02-03T10:31:22;7.90;99.90
56374;DHT22;58212;47.034;7.376;2023-02-03T10:33:58;8.10;99.90
56374;DHT22;58212;47.034;7.376;2023-02-03T10:36:34;8.10;99.90
56374;DHT22;58212;47.034;7.376;2023-02-03T10:39:14;8.20;99.90
56374;DHT22;58212;47.034;7.376;2023-02-03T10:42:10;8.10;99.90
56374;DHT22;58212;47.034;7.376;2023-02-03T10:44:41;7.80;99.90
56374;DHT22;58212;47.034;7.376;2023-02-03T10:47:26;7.90;99.90
56374;DHT22;58212;47.034;7.376;2023-02-03T10:49:55;8.10;99.90
56374;DHT22;58212;47.034;7.376;2023-02-03T10:52:25;8.30;99.90
56374;DHT22;58212;47.034;7.376;2023-02-03T10:54:54;8.30;99.90
56374;DHT22;58212;47.034;7.376;2023-02-03T10:57:27;8.30;99.90
56374;DHT22;58212;47.034;7.376;2023-02-03T11:00:19;8.30;99.90
56374;DHT22;58212;47.034;7.376;2023-02-03T11:02:56;8.10;99.90
56374;DHT22;58212;47.034;7.376;2023-02-03T11:05:29;8.10;99.90
56374;DHT22;58212;47.034;7.376;2023-02-03T11:07:56;8.30;99.90
56374;DHT22;58212;47.034;7.376;2023-02-03T11:10:34;8.20;99.90
56374;DHT22;58212;47.034;7.376;2023-02-03T11:13:27;8.30;99.90
56374;DHT22;58212;47.034;7.376;2023-02-03T11:15:59;8.20;99.90
56374;DHT22;58212;47.034;7.376;2023-02-03T11:18:56;8.10;99.90
56374;DHT22;58212;47.034;7.376;2023-02-03T11:21:27;8.20;99.90
56374;DHT22;58212;47.034;7.376;2023-02-03T11:24:21;8.20;99.90
56374;DHT22;58212;47.034;7.376;2023-02-03T11:26:53;8.10;99.90
56374;DHT22;58212;47.034;7.376;2023-02-03T11:29:23;8.30;99.90
56374;DHT22;58212;47.034;7.376;2023-02-03T11:31:53;8.30;99.90
56374;DHT22;58212;47.034;7.376;2023-02-03T11:34:25;8.10;99.90
56374;DHT22;58212;47.034;7.376;2023-02-03T11:36:57;8.20;99.90
56374;DHT22;58212;47.034;7.376;2023-02-03T11:39:29;8.10;99.90
56374;DHT22;58212;47.034;7.376;2023-02-03T11:42:01;8.20;99.90
56374;DHT22;58212;47.034;7.376;2023-02-03T11:44:29;8.30;99.90
56374;DHT22;58212;47.034;7.376;2023-02-03T11:47:08;8.30;99.90
56374;DHT22;58212;47.034;7.376;2023-02-03T11:50:02;8.40;99.90
56374;DHT22;58212;47.034;7.376;2023-02-03T11:53:05;8.40;99.90
56374;DHT22;58212;47.034;7.376;2023-02-03T11:55:46;8.20;99.90
56374;DHT22;58212;47.034;7.376;2023-02-03T11:58:44;8.30;99.90
56374;DHT22;58212;47.034;7.376;2023-02-03T12:01:19;8.30;99.90
56374;DHT22;58212;47.034;7.376;2023-02-03T12:07:17;8.40;99.90
56374;DHT22;58212;47.034;7.376;2023-02-03T12:09:51;8.30;99.90
56374;DHT22;58212;47.034;7.376;2023-02-03T12:12:42;8.30;99.90
56374;DHT22;58212;47.034;7.376;2023-02-03T12:15:23;8.40;99.90
56374;DHT22;58212;47.034;7.376;2023-02-03T12:18:02;8.70;99.90
56374;DHT22;58212;47.034;7.376;2023-02-03T12:20:43;8.70;99.90
56374;DHT22;58212;47.034;7.376;2023-02-03T12:23:28;8.90;99.90
56374;DHT22;58212;47.034;7.376;2023-02-03T12:26:04;8.70;99.90
56374;DHT22;58212;47.034;7.376;2023-02-03T12:28:42;8.80;99.90
56374;DHT22;58212;47.034;7.376;2023-02-03T12:31:16;8.50;99.90
56374;DHT22;58212;47.034;7.376;2023-02-03T12:33:47;8.70;99.90
56374;DHT22;58212;47.034;7.376;2023-02-03T12:36:20;8.80;99.90
56374;DHT22;58212;47.034;7.376;2023-02-03T12:38:55;8.60;99.90
56374;DHT22;58212;47.034;7.376;2023-02-03T12:41:26;8.60;99.90
56374;DHT22;58212;47.034;7.376;2023-02-03T12:44:21;8.70;99.90
56374;DHT22;58212;47.034;7.376;2023-02-03T12:46:54;8.90;99.90
56374;DHT22;58212;47.034;7.376;2023-02-03T12:49:30;8.90;99.90
56374;DHT22;58212;47.034;7.376;2023-02-03T12:52:04;8.90;99.90
56374;DHT22;58212;47.034;7.376;2023-02-03T12:54:41;9.00;99.90
56374;DHT22;58212;47.034;7.376;2023-02-03T12:57:17;9.10;99.90
56374;DHT22;58212;47.034;7.376;2023-02-03T12:59:59;9.10;99.90
56374;DHT22;58212;47.034;7.376;2023-02-03T13:02:29;9.10;99.90
56374;DHT22;58212;47.034;7.376;2023-02-03T13:05:06;9.20;99.90
56374;DHT22;58212;47.034;7.376;2023-02-03T13:07:42;9.00;99.90
56374;DHT22;58212;47.034;7.376;2023-02-03T13:10:20;9.10;99.90
56374;DHT22;58212;47.034;7.376;2023-02-03T13:12:55;9.00;99.90
56374;DHT22;58212;47.034;7.376;2023-02-03T13:15:26;9.00;99.90
56374;DHT22;58212;47.034;7.376;2023-02-03T13:17:57;9.00;99.90
56374;DHT22;58212;47.034;7.376;2023-02-03T13:20:52;9.10;99.90
56374;DHT22;58212;47.034;7.376;2023-02-03T13:23:19;9.00;99.90
56374;DHT22;58212;47.034;7.376;2023-02-03T13:26:08;8.90;99.90
56374;DHT22;58212;47.034;7.376;2023-02-03T13:28:49;9.00;99.90
56374;DHT22;58212;47.034;7.376;2023-02-03T13:31:33;9.10;99.90
56374;DHT22;58212;47.034;7.376;2023-02-03T13:34:22;9.10;99.90
56374;DHT22;58212;47.034;7.376;2023-02-03T13:37:17;9.30;99.90
56374;DHT22;58212;47.034;7.376;2023-02-03T13:39:59;9.50;99.90
56374;DHT22;58212;47.034;7.376;2023-02-03T13:42:56;9.60;99.90
56374;DHT22;58212;47.034;7.376;2023-02-03T13:45:27;9.50;99.90
56374;DHT22;58212;47.034;7.376;2023-02-03T13:47:58;9.50;99.90
56374;DHT22;58212;47.034;7.376;2023-02-03T13:50:28;9.60;99.90
56374;DHT22;58212;47.034;7.376;2023-02-03T13:52:59;9.60;99.90
56374;DHT22;58212;47.034;7.376;2023-02-03T13:55:34;9.40;99.90
56374;DHT22;58212;47.034;7.376;2023-02-03T13:58:05;9.10;99.90
56374;DHT22;58212;47.034;7.376;2023-02-03T14:01:02;9.10;99.90
56374;DHT22;58212;47.034;7.376;2023-02-03T14:03:44;9.10;99.90
56374;DHT22;58212;47.034;7.376;2023-02-03T14:14:41;8.80;99.90
56374;DHT22;58212;47.034;7.376;2023-02-03T14:17:57;8.80;99.90
56374;DHT22;58212;47.034;7.376;2023-02-03T14:20:49;8.70;99.90
56374;DHT22;58212;47.034;7.376;2023-02-03T14:23:25;8.50;99.90
56374;DHT22;58212;47.034;7.376;2023-02-03T14:25:56;8.50;99.90
56374;DHT22;58212;47.034;7.376;2023-02-03T14:28:29;8.50;99.90
56374;DHT22;58212;47.034;7.376;2023-02-03T14:31:11;8.50;99.90
56374;DHT22;58212;47.034;7.376;2023-02-03T14:34:06;8.50;99.90
56374;DHT22;58212;47.034;7.376;2023-02-03T14:36:41;8.50;99.90
56374;DHT22;58212;47.034;7.376;2023-02-03T14:43:10;8.60;99.90
56374;DHT22;58212;47.034;7.376;2023-02-03T14:45:51;8.60;99.90
56374;DHT22;58212;47.034;7.376;2023-02-03T14:48:34;8.70;99.90
56374;DHT22;58212;47.034;7.376;2023-02-03T14:51:10;8.40;99.90
56374;DHT22;58212;47.034;7.376;2023-02-03T14:53:57;8.60;99.90
56374;DHT22;58212;47.034;7.376;2023-02-03T14:56:38;8.60;99.90
56374;DHT22;58212;47.034;7.376;2023-02-03T14:59:49;8.40;99.90
56374;DHT22;58212;47.034;7.376;2023-02-03T15:02:18;8.20;99.90
56374;DHT22;58212;47.034;7.376;2023-02-03T15:04:49;8.30;99.90
56374;DHT22;58212;47.034;7.376;2023-02-03T15:07:37;8.20;99.90
56374;DHT22;58212;47.034;7.376;2023-02-03T15:10:14;8.00;99.90
56374;DHT22;58212;47.034;7.376;2023-02-03T15:12:46;8.20;99.90
56374;DHT22;58212;47.034;7.376;2023-02-03T15:15:19;8.10;99.90
56374;DHT22;58212;47.034;7.376;2023-02-03T15:18:21;8.00;99.90
56374;DHT22;58212;47.034;7.376;2023-02-03T15:20:53;8.00;99.90
56374;DHT22;58212;47.034;7.376;2023-02-03T15:23:24;8.00;99.90
56374;DHT22;58212;47.034;7.376;2023-02-03T15:25:55;8.10;99.90
56374;DHT22;58212;47.034;7.376;2023-02-03T15:28:24;8.10;99.90
56374;DHT22;58212;47.034;7.376;2023-02-03T15:30:55;7.90;99.90
56374;DHT22;58212;47.034;7.376;2023-02-03T15:33:24;7.90;99.90
56374;DHT22;58212;47.034;7.376;2023-02-03T15:36:00;7.90;99.90
56374;DHT22;58212;47.034;7.376;2023-02-03T15:38:32;7.80;99.90
56374;DHT22;58212;47.034;7.376;2023-02-03T15:41:06;7.80;99.90
56374;DHT22;58212;47.034;7.376;2023-02-03T15:43:38;7.60;99.90
56374;DHT22;58212;47.034;7.376;2023-02-03T15:46:09;7.60;99.90
56374;DHT22;58212;47.034;7.376;2023-02-03T15:48:47;7.60;99.90
56374;DHT22;58212;47.034;7.376;2023-02-03T15:51:20;7.50;99.90
56374;DHT22;58212;47.034;7.376;2023-02-03T15:53:53;7.50;99.90
56374;DHT22;58212;47.034;7.376;2023-02-03T15:56:29;7.50;99.90
56374;DHT22;58212;47.034;7.376;2023-02-03T15:59:02;7.50;99.90
56374;DHT22;58212;47.034;7.376;2023-02-03T16:01:30;7.50;99.90
56374;DHT22;58212;47.034;7.376;2023-02-03T16:03:58;7.40;99.90
56374;DHT22;58212;47.034;7.376;2023-02-03T16:06:29;7.50;99.90
56374;DHT22;58212;47.034;7.376;2023-02-03T16:09:02;7.20;99.90
56374;DHT22;58212;47.034;7.376;2023-02-03T16:11:33;7.20;99.90
56374;DHT22;58212;47.034;7.376;2023-02-03T16:14:05;7.10;99.90
56374;DHT22;58212;47.034;7.376;2023-02-03T16:16:57;7.00;99.90
56374;DHT22;58212;47.034;7.376;2023-02-03T16:19:27;7.00;99.90
56374;DHT22;58212;47.034;7.376;2023-02-03T16:21:57;6.90;99.90
56374;DHT22;58212;47.034;7.376;2023-02-03T16:24:38;6.90;99.90
56374;DHT22;58212;47.034;7.376;2023-02-03T16:27:32;6.80;99.90
56374;DHT22;58212;47.034;7.376;2023-02-03T16:30:21;6.70;99.90
56374;DHT22;58212;47.034;7.376;2023-02-03T16:33:15;6.70;99.90
56374;DHT22;58212;47.034;7.376;2023-02-03T16:36:10;6.60;99.90
56374;DHT22;58212;47.034;7.376;2023-02-03T16:39:00;6.60;99.90
56374;DHT22;58212;47.034;7.376;2023-02-03T16:41:45;6.70;99.90
56374;DHT22;58212;47.034;7.376;2023-02-03T16:44:29;6.70;99.90
56374;DHT22;58212;47.034;7.376;2023-02-03T16:47:23;6.70;99.90
56374;DHT22;58212;47.034;7.376;2023-02-03T16:50:11;6.70;99.90
56374;DHT22;58212;47.034;7.376;2023-02-03T16:52:57;6.70;99.90